Time;durP1;ratioP1;P1;durP2;ratioP2;P2;SDS_P1;SDS_P2;PMS_P1;PMS_P2;Temp;Humidity;BMP_temperature;BMP_pressure;BME280_temperature;BME280_humidity;BME280_pressure;Samples;Min_cycle;Max_cycle;Signal;HPM_P1;HPM_P2
2022/02/25 00:00:52;;;;;;;5.80;3.17;;;;;;;;;;5053073;28;20364;-77
2022/02/25 00:03:18;;;;;;;4.05;2.60;;;;;;;;;;5049855;28;20284;-78
2022/02/25 00:05:44;;;;;;;7.43;3.08;;;;;;;;;;5044598;28;20034;-79
2022/02/25 00:08:10;;;;;;;8.95;3.08;;;;;;;;;;5060017;28;20044;-78
2022/02/25 00:10:37;;;;;;;7.10;2.63;;;;;;;;;;5051829;28;20060;-78
2022/02/25 00:13:03;;;;;;;12.88;5.20;;;;;;;;;;5054202;28;20037;-78
2022/02/25 00:15:29;;;;;;;15.32;5.28;;;;;;;;;;5053801;28;20025;-78
2022/02/25 00:17:56;;;;;;;19.55;9.95;;;;;;;;;;5051258;28;20475;-79
2022/02/25 00:20:22;;;;;;;13.30;7.80;;;;;;;;;;5052737;28;20025;-78
2022/02/25 00:22:48;;;;;;;14.73;6.72;;;;;;;;;;5068047;28;20243;-78
2022/02/25 00:25:15;;;;;;;11.50;4.72;;;;;;;;;;5050144;28;20043;-79
2022/02/25 00:27:42;;;;;;;7.88;3.58;;;;;;;;;;5048933;28;20029;-79
2022/02/25 00:30:09;;;;;;;8.82;4.28;;;;;;;;;;5050470;28;20025;-79
2022/02/25 00:32:35;;;;;;;10.70;3.38;;;;;;;;;;5049430;28;20521;-79
2022/02/25 00:35:02;;;;;;;6.50;2.65;;;;;;;;;;5049186;28;20025;-78
2022/02/25 00:37:28;;;;;;;10.15;2.97;;;;;;;;;;5066181;28;20083;-79
2022/02/25 00:39:54;;;;;;;6.78;2.85;;;;;;;;;;5048865;28;20044;-77
2022/02/25 00:42:20;;;;;;;8.35;2.65;;;;;;;;;;5050689;28;20143;-78
2022/02/25 00:44:46;;;;;;;5.22;2.78;;;;;;;;;;5049952;28;20697;-78
2022/02/25 00:47:13;;;;;;;6.50;2.38;;;;;;;;;;5049878;28;20110;-78
2022/02/25 00:49:39;;;;;;;6.15;2.47;;;;;;;;;;5051819;28;20040;-78
2022/02/25 00:52:05;;;;;;;6.93;2.42;;;;;;;;;;5049735;28;20040;-78
2022/02/25 00:54:31;;;;;;;9.30;2.70;;;;;;;;;;5054529;28;20028;-78
2022/02/25 00:56:58;;;;;;;7.30;2.40;;;;;;;;;;5071345;28;20021;-79
2022/02/25 00:59:24;;;;;;;4.88;2.42;;;;;;;;;;5060050;28;20021;-78
2022/02/25 01:01:50;;;;;;;7.57;2.42;;;;;;;;;;5060685;28;20100;-78
2022/02/25 01:04:16;;;;;;;9.30;2.40;;;;;;;;;;5052148;28;20029;-78
2022/02/25 01:06:43;;;;;;;9.32;2.42;;;;;;;;;;5061335;28;20029;-77
2022/02/25 01:09:11;;;;;;;7.72;2.20;;;;;;;;;;5053052;28;20029;-77
2022/02/25 01:11:37;;;;;;;6.72;2.30;;;;;;;;;;5057188;28;20612;-77
2022/02/25 01:14:04;;;;;;;7.15;3.47;;;;;;;;;;5069022;28;20025;-78
2022/02/25 01:16:30;;;;;;;12.25;2.70;;;;;;;;;;5052385;28;20444;-78
2022/02/25 01:18:56;;;;;;;5.47;2.42;;;;;;;;;;5067253;28;20796;-78
2022/02/25 01:21:23;;;;;;;11.70;3.28;;;;;;;;;;5053376;28;20026;-78
2022/02/25 01:23:49;;;;;;;8.85;2.75;;;;;;;;;;5054018;28;20029;-78
2022/02/25 01:26:15;;;;;;;8.73;3.88;;;;;;;;;;5067829;28;20486;-78
2022/02/25 01:28:41;;;;;;;7.63;3.05;;;;;;;;;;5055783;28;20112;-78
2022/02/25 01:31:07;;;;;;;8.63;2.88;;;;;;;;;;5065259;28;20032;-78
2022/02/25 01:33:33;;;;;;;7.53;3.10;;;;;;;;;;5053111;28;20098;-78
2022/02/25 01:36:00;;;;;;;6.03;2.72;;;;;;;;;;5068339;28;20063;-78
2022/02/25 01:38:27;;;;;;;6.32;2.70;;;;;;;;;;5052855;28;20066;-78
2022/02/25 01:40:54;;;;;;;6.25;2.58;;;;;;;;;;5054438;28;20384;-78
2022/02/25 01:43:21;;;;;;;6.30;2.65;;;;;;;;;;5053619;28;20132;-78
2022/02/25 01:45:47;;;;;;;7.53;3.03;;;;;;;;;;5053836;28;20029;-78
2022/02/25 01:48:13;;;;;;;5.97;2.60;;;;;;;;;;5055366;28;20482;-77
2022/02/25 01:50:39;;;;;;;9.85;2.58;;;;;;;;;;5053792;28;20032;-78
2022/02/25 01:53:06;;;;;;;5.18;2.20;;;;;;;;;;5053437;28;20089;-77
2022/02/25 01:55:33;;;;;;;12.65;2.53;;;;;;;;;;5053204;28;20098;-78
2022/02/25 01:57:59;;;;;;;8.40;2.85;;;;;;;;;;5062534;28;20040;-78
2022/02/25 02:00:26;;;;;;;6.55;2.90;;;;;;;;;;5067473;28;20037;-78
2022/02/25 02:02:52;;;;;;;9.85;2.55;;;;;;;;;;5069055;28;20021;-78
2022/02/25 02:05:18;;;;;;;5.50;2.83;;;;;;;;;;5068786;28;20029;-78
2022/02/25 02:07:45;;;;;;;6.65;3.03;;;;;;;;;;5062874;28;20120;-77
2022/02/25 02:10:11;;;;;;;7.10;2.47;;;;;;;;;;5055314;28;20029;-78
2022/02/25 02:12:37;;;;;;;7.70;2.90;;;;;;;;;;5046334;28;20078;-78
2022/02/25 02:15:04;;;;;;;4.95;2.80;;;;;;;;;;5055716;28;20057;-76
2022/02/25 02:17:31;;;;;;;6.50;2.67;;;;;;;;;;5052130;28;20040;-79
2022/02/25 02:19:57;;;;;;;4.45;2.50;;;;;;;;;;5060613;28;20051;-78
2022/02/25 02:22:24;;;;;;;4.30;2.70;;;;;;;;;;5053279;28;20498;-79
2022/02/25 02:24:50;;;;;;;9.75;3.20;;;;;;;;;;5059729;28;20033;-77
2022/02/25 02:27:16;;;;;;;11.45;2.50;;;;;;;;;;5072642;28;20446;-78
2022/02/25 02:29:42;;;;;;;12.52;3.00;;;;;;;;;;5054575;28;20028;-78
2022/02/25 02:32:09;;;;;;;9.13;2.63;;;;;;;;;;5053318;28;20770;-78
2022/02/25 02:34:35;;;;;;;8.52;3.17;;;;;;;;;;5069870;28;20025;-79
2022/02/25 02:37:01;;;;;;;8.60;2.70;;;;;;;;;;5055094;28;20033;-78
2022/02/25 02:39:27;;;;;;;4.97;2.35;;;;;;;;;;5053029;28;20048;-79
2022/02/25 02:41:53;;;;;;;11.55;2.80;;;;;;;;;;5053394;28;20021;-79
2022/02/25 02:44:19;;;;;;;8.82;2.80;;;;;;;;;;5052914;28;20478;-78
2022/02/25 02:46:45;;;;;;;5.78;2.50;;;;;;;;;;5054235;28;20036;-78
2022/02/25 02:49:11;;;;;;;7.80;2.80;;;;;;;;;;5049232;28;20039;-77
2022/02/25 02:51:38;;;;;;;10.75;2.90;;;;;;;;;;5052280;28;20029;-78
2022/02/25 02:54:04;;;;;;;11.20;2.88;;;;;;;;;;5053198;28;20025;-78
2022/02/25 02:56:30;;;;;;;7.80;2.50;;;;;;;;;;5056095;28;20483;-78
2022/02/25 02:58:56;;;;;;;5.35;2.25;;;;;;;;;;5051932;28;20033;-78
2022/02/25 03:01:26;;;;;;;4.53;2.50;;;;;;;;;;5047143;28;20028;-78
2022/02/25 03:03:52;;;;;;;8.07;2.30;;;;;;;;;;5048509;28;20037;-78
2022/02/25 03:06:18;;;;;;;5.50;2.55;;;;;;;;;;5047999;28;20021;-78
2022/02/25 03:08:45;;;;;;;7.65;2.78;;;;;;;;;;5056209;28;20040;-79
2022/02/25 03:11:11;;;;;;;5.75;2.40;;;;;;;;;;5056245;28;20394;-78
2022/02/25 03:13:37;;;;;;;5.10;2.25;;;;;;;;;;5051617;28;20053;-77
2022/02/25 03:16:04;;;;;;;5.43;2.20;;;;;;;;;;5058129;28;20032;-78
2022/02/25 03:18:30;;;;;;;6.43;2.63;;;;;;;;;;5056453;28;20016;-79
2022/02/25 03:20:56;;;;;;;7.38;2.55;;;;;;;;;;5056875;28;20075;-78
2022/02/25 03:23:22;;;;;;;8.43;2.25;;;;;;;;;;5056100;28;20798;-78
2022/02/25 03:25:48;;;;;;;3.72;2.88;;;;;;;;;;5053548;28;20031;-78
2022/02/25 03:28:14;;;;;;;11.18;3.17;;;;;;;;;;5059019;28;20021;-77
2022/02/25 03:30:40;;;;;;;8.88;2.80;;;;;;;;;;5049987;28;20194;-78
2022/02/25 03:33:06;;;;;;;5.53;2.15;;;;;;;;;;5048843;28;20132;-78
2022/02/25 03:35:35;;;;;;;7.95;2.35;;;;;;;;;;5048541;28;20083;-77
2022/02/25 03:38:01;;;;;;;7.57;2.45;;;;;;;;;;5042733;28;20024;-77
2022/02/25 03:40:28;;;;;;;7.13;2.60;;;;;;;;;;5051330;28;20044;-77
2022/02/25 03:42:54;;;;;;;6.70;2.35;;;;;;;;;;5054955;28;20418;-78
2022/02/25 03:45:20;;;;;;;4.38;2.42;;;;;;;;;;5067620;28;20020;-78
2022/02/25 03:47:47;;;;;;;8.40;2.95;;;;;;;;;;5060084;28;20506;-78
2022/02/25 03:50:13;;;;;;;11.02;2.58;;;;;;;;;;5050380;28;20021;-76
2022/02/25 03:52:39;;;;;;;6.05;2.30;;;;;;;;;;5053691;28;20679;-77
2022/02/25 03:55:06;;;;;;;6.68;2.50;;;;;;;;;;5059347;28;20028;-76
2022/02/25 03:57:32;;;;;;;6.35;2.45;;;;;;;;;;5066569;28;20399;-78
2022/02/25 03:59:58;;;;;;;6.25;1.90;;;;;;;;;;5049908;28;20109;-77
2022/02/25 04:02:25;;;;;;;14.25;3.22;;;;;;;;;;5055674;28;20058;-77
2022/02/25 04:04:51;;;;;;;8.95;2.80;;;;;;;;;;5053558;28;20029;-78
2022/02/25 04:07:17;;;;;;;3.80;1.98;;;;;;;;;;5053950;28;20025;-79
2022/02/25 04:09:43;;;;;;;8.65;2.30;;;;;;;;;;5050615;28;20049;-77
2022/02/25 04:12:10;;;;;;;6.95;2.05;;;;;;;;;;5050658;28;20060;-78
2022/02/25 04:14:36;;;;;;;7.30;2.20;;;;;;;;;;5051606;28;20074;-78
2022/02/25 04:17:03;;;;;;;6.28;2.47;;;;;;;;;;5068761;28;20111;-78
2022/02/25 04:19:30;;;;;;;6.10;2.38;;;;;;;;;;5051604;28;20449;-77
2022/02/25 04:21:56;;;;;;;9.40;2.50;;;;;;;;;;5070133;28;20032;-78
2022/02/25 04:24:24;;;;;;;8.73;3.05;;;;;;;;;;5051284;28;20158;-78
2022/02/25 04:26:50;;;;;;;6.47;2.42;;;;;;;;;;5061758;28;20092;-78
2022/02/25 04:29:16;;;;;;;3.50;2.20;;;;;;;;;;5051922;28;20110;-78
2022/02/25 04:31:43;;;;;;;13.02;2.67;;;;;;;;;;5051908;28;20025;-78
2022/02/25 04:34:09;;;;;;;7.40;2.47;;;;;;;;;;5051491;28;20037;-78
2022/02/25 04:36:38;;;;;;;9.23;2.40;;;;;;;;;;5049805;28;20017;-78
2022/02/25 04:39:05;;;;;;;5.05;2.63;;;;;;;;;;5050496;28;20507;-78
2022/02/25 04:41:31;;;;;;;6.75;2.85;;;;;;;;;;5050868;28;20475;-78
2022/02/25 04:43:58;;;;;;;9.05;2.70;;;;;;;;;;5050467;28;20053;-78
2022/02/25 04:46:25;;;;;;;8.23;2.42;;;;;;;;;;5060219;28;20033;-78
2022/02/25 04:48:51;;;;;;;9.43;2.50;;;;;;;;;;5049166;28;20029;-78
2022/02/25 04:51:17;;;;;;;9.60;2.95;;;;;;;;;;5048907;28;20025;-78
2022/02/25 04:53:44;;;;;;;11.50;3.25;;;;;;;;;;5049633;28;20073;-78
2022/02/25 04:56:10;;;;;;;11.80;3.00;;;;;;;;;;5051007;28;20134;-78
2022/02/25 04:58:37;;;;;;;8.75;2.75;;;;;;;;;;5053172;28;20029;-78
2022/02/25 05:01:03;;;;;;;6.85;2.55;;;;;;;;;;5067435;28;20638;-78
2022/02/25 05:03:29;;;;;;;16.80;2.83;;;;;;;;;;5049509;28;20108;-78
2022/02/25 05:05:55;;;;;;;5.82;2.45;;;;;;;;;;5059322;28;20031;-77
2022/02/25 05:08:22;;;;;;;8.32;2.30;;;;;;;;;;5049446;28;20094;-78
2022/02/25 05:10:48;;;;;;;8.25;2.67;;;;;;;;;;5065075;28;20049;-78
2022/02/25 05:13:14;;;;;;;10.85;2.67;;;;;;;;;;5054020;28;20402;-78
2022/02/25 05:21:09;;;;;;;5.88;2.60;;;;;;;;;;5050699;28;20079;-78
2022/02/25 05:23:36;;;;;;;9.93;2.97;;;;;;;;;;5066178;28;20100;-78
2022/02/25 05:26:02;;;;;;;6.53;2.72;;;;;;;;;;5058585;28;20029;-79
2022/02/25 05:28:28;;;;;;;12.40;2.72;;;;;;;;;;5066069;28;20045;-78
2022/02/25 05:30:54;;;;;;;8.95;2.65;;;;;;;;;;5056456;28;20021;-78
2022/02/25 05:33:20;;;;;;;11.40;2.65;;;;;;;;;;5042065;28;20072;-77
2022/02/25 05:35:46;;;;;;;11.95;3.88;;;;;;;;;;5051445;28;20075;-78
2022/02/25 05:38:13;;;;;;;12.77;3.20;;;;;;;;;;5063058;28;20029;-77
2022/02/25 05:40:40;;;;;;;11.38;2.92;;;;;;;;;;5051492;28;20025;-79
2022/02/25 05:43:06;;;;;;;11.30;2.67;;;;;;;;;;5054578;28;20027;-77
2022/02/25 05:45:32;;;;;;;8.40;2.88;;;;;;;;;;5054714;28;20025;-78
2022/02/25 05:47:59;;;;;;;10.40;3.20;;;;;;;;;;5060793;28;20031;-79
2022/02/25 05:50:26;;;;;;;9.85;2.88;;;;;;;;;;5054180;28;20072;-78
2022/02/25 05:52:52;;;;;;;9.90;3.22;;;;;;;;;;5055832;28;20024;-77
2022/02/25 05:55:20;;;;;;;9.77;2.60;;;;;;;;;;5052283;28;20021;-78
2022/02/25 05:57:46;;;;;;;6.30;3.83;;;;;;;;;;5062068;28;20028;-77
2022/02/25 06:00:15;;;;;;;14.23;3.95;;;;;;;;;;5054579;28;20029;-77
2022/02/25 06:02:42;;;;;;;5.97;3.03;;;;;;;;;;5059102;28;20117;-77
2022/02/25 06:05:08;;;;;;;6.53;3.40;;;;;;;;;;5053360;28;20052;-78
2022/02/25 06:07:35;;;;;;;11.68;3.03;;;;;;;;;;5060555;28;20502;-78
2022/02/25 06:10:01;;;;;;;11.18;3.33;;;;;;;;;;5062695;28;20061;-79
2022/02/25 06:12:27;;;;;;;10.70;2.72;;;;;;;;;;5054842;28;20037;-78
2022/02/25 06:14:53;;;;;;;14.35;3.70;;;;;;;;;;5052321;28;20029;-78
2022/02/25 06:17:19;;;;;;;8.18;2.47;;;;;;;;;;5069820;28;20028;-78
2022/02/25 06:19:45;;;;;;;7.40;2.95;;;;;;;;;;5076140;28;20029;-78
2022/02/25 06:22:11;;;;;;;8.63;2.53;;;;;;;;;;5053756;28;20025;-77
2022/02/25 06:24:38;;;;;;;10.50;3.17;;;;;;;;;;5058281;28;20029;-78
2022/02/25 06:27:04;;;;;;;8.60;2.90;;;;;;;;;;5063974;28;20031;-78
2022/02/25 06:29:30;;;;;;;14.07;3.30;;;;;;;;;;5070154;28;20068;-79
2022/02/25 06:31:56;;;;;;;11.73;4.18;;;;;;;;;;5054303;28;20059;-77
2022/02/25 06:34:22;;;;;;;10.90;3.88;;;;;;;;;;5052203;28;20029;-77
2022/02/25 06:36:48;;;;;;;10.52;3.38;;;;;;;;;;5052184;28;20033;-77
2022/02/25 06:39:15;;;;;;;9.18;2.97;;;;;;;;;;5062089;28;20025;-78
2022/02/25 06:41:41;;;;;;;7.20;2.72;;;;;;;;;;5054651;28;20088;-78
2022/02/25 06:44:07;;;;;;;9.15;2.83;;;;;;;;;;5061315;28;20025;-77
2022/02/25 06:46:33;;;;;;;10.35;2.40;;;;;;;;;;5056265;28;20033;-78
2022/02/25 06:49:00;;;;;;;10.20;3.00;;;;;;;;;;5052873;28;20033;-77
2022/02/25 06:51:27;;;;;;;9.35;3.80;;;;;;;;;;5054543;28;20032;-77
2022/02/25 06:53:53;;;;;;;9.23;2.28;;;;;;;;;;5053720;28;20620;-78
2022/02/25 06:56:20;;;;;;;8.65;2.88;;;;;;;;;;5057407;28;20155;-77
2022/02/25 06:58:46;;;;;;;10.10;2.88;;;;;;;;;;5054757;28;20116;-78
2022/02/25 07:01:12;;;;;;;8.98;3.08;;;;;;;;;;5061411;28;20383;-78
2022/02/25 07:03:38;;;;;;;14.05;2.75;;;;;;;;;;5048501;28;21375;-78
2022/02/25 07:06:05;;;;;;;7.88;2.45;;;;;;;;;;5042571;28;20616;-77
2022/02/25 07:08:31;;;;;;;7.53;2.58;;;;;;;;;;5053117;28;20040;-78
2022/02/25 07:10:57;;;;;;;8.40;2.30;;;;;;;;;;5052239;28;20049;-78
2022/02/25 07:13:23;;;;;;;11.05;3.08;;;;;;;;;;5051921;28;20035;-79
2022/02/25 07:15:51;;;;;;;12.13;3.20;;;;;;;;;;5052130;28;20056;-77
2022/02/25 07:18:18;;;;;;;14.23;3.22;;;;;;;;;;5049741;28;20025;-77
2022/02/25 07:20:45;;;;;;;7.43;2.83;;;;;;;;;;5050971;28;20029;-78
2022/02/25 07:23:11;;;;;;;9.55;3.28;;;;;;;;;;5049107;28;20074;-77
2022/02/25 07:25:37;;;;;;;10.18;3.22;;;;;;;;;;5050077;28;20376;-77
2022/02/25 07:28:04;;;;;;;14.52;4.38;;;;;;;;;;5057564;28;20036;-77
2022/02/25 07:30:30;;;;;;;8.75;2.50;;;;;;;;;;5071274;28;20112;-77
2022/02/25 07:32:56;;;;;;;10.65;3.20;;;;;;;;;;5050283;28;20033;-78
2022/02/25 07:35:22;;;;;;;12.40;2.83;;;;;;;;;;5046213;28;20445;-78
2022/02/25 07:37:49;;;;;;;7.80;2.75;;;;;;;;;;5046679;28;20025;-77
2022/02/25 07:40:15;;;;;;;14.50;3.67;;;;;;;;;;5054552;28;20021;-77
2022/02/25 07:42:42;;;;;;;13.73;3.00;;;;;;;;;;5054234;28;20711;-73
2022/02/25 07:45:08;;;;;;;9.68;3.00;;;;;;;;;;5050439;28;20032;-74
2022/02/25 07:47:35;;;;;;;11.88;3.17;;;;;;;;;;5047060;28;20302;-74
2022/02/25 07:50:01;;;;;;;9.73;2.75;;;;;;;;;;5052256;28;20037;-75
2022/02/25 07:52:27;;;;;;;9.82;2.70;;;;;;;;;;5025924;28;20037;-74
2022/02/25 07:54:53;;;;;;;15.18;3.35;;;;;;;;;;5022955;28;20386;-74
2022/02/25 07:57:20;;;;;;;9.95;2.95;;;;;;;;;;5009566;28;20037;-75
2022/02/25 07:59:47;;;;;;;14.02;3.35;;;;;;;;;;4998640;28;20038;-75
2022/02/25 08:02:13;;;;;;;8.82;2.83;;;;;;;;;;5001409;28;20053;-75
2022/02/25 08:04:39;;;;;;;9.05;3.03;;;;;;;;;;4987531;28;20774;-75
2022/02/25 08:07:05;;;;;;;6.43;3.13;;;;;;;;;;4986856;28;20377;-75
2022/02/25 08:09:31;;;;;;;8.45;2.83;;;;;;;;;;4982301;28;20081;-73
2022/02/25 08:11:58;;;;;;;9.98;3.22;;;;;;;;;;4995231;28;20036;-75
2022/02/25 08:14:24;;;;;;;9.73;3.53;;;;;;;;;;5006760;28;20028;-75
2022/02/25 08:16:50;;;;;;;5.88;2.33;;;;;;;;;;5006388;28;20029;-75
2022/02/25 08:19:17;;;;;;;11.65;2.85;;;;;;;;;;5008243;28;20026;-75
2022/02/25 08:21:43;;;;;;;10.50;3.55;;;;;;;;;;4999443;28;20026;-76
2022/02/25 08:24:09;;;;;;;14.75;3.35;;;;;;;;;;5003026;28;20418;-75
2022/02/25 08:26:36;;;;;;;7.70;2.40;;;;;;;;;;5003212;28;20480;-75
2022/02/25 08:29:02;;;;;;;15.15;3.22;;;;;;;;;;5001985;28;20060;-75
2022/02/25 08:31:28;;;;;;;18.65;4.68;;;;;;;;;;5011015;28;20029;-74
2022/02/25 08:33:54;;;;;;;13.65;3.45;;;;;;;;;;5010575;28;20042;-75
2022/02/25 08:36:20;;;;;;;10.70;3.10;;;;;;;;;;5008196;28;20022;-75
2022/02/25 08:38:47;;;;;;;17.90;3.75;;;;;;;;;;5010247;28;20097;-75
2022/02/25 08:41:13;;;;;;;12.23;3.75;;;;;;;;;;5020864;28;20080;-75
2022/02/25 08:43:39;;;;;;;11.02;3.42;;;;;;;;;;5010280;28;20036;-74
2022/02/25 08:46:05;;;;;;;13.65;3.72;;;;;;;;;;5009382;28;20047;-74
2022/02/25 08:48:32;;;;;;;15.73;3.83;;;;;;;;;;5005190;28;20128;-74
2022/02/25 08:50:58;;;;;;;9.80;3.10;;;;;;;;;;4999947;28;20030;-75
2022/02/25 08:53:24;;;;;;;8.55;4.50;;;;;;;;;;5010445;28;20029;-74
2022/02/25 08:55:50;;;;;;;16.00;4.22;;;;;;;;;;5009452;28;20101;-75
2022/02/25 08:58:17;;;;;;;10.18;3.33;;;;;;;;;;5010185;28;20034;-76
2022/02/25 09:00:43;;;;;;;13.70;3.70;;;;;;;;;;5008612;28;20029;-75
2022/02/25 09:03:09;;;;;;;10.45;3.97;;;;;;;;;;5007078;28;20030;-76
2022/02/25 09:05:36;;;;;;;7.38;3.65;;;;;;;;;;5007587;28;20671;-75
2022/02/25 09:08:02;;;;;;;10.48;4.28;;;;;;;;;;5008316;28;20034;-76
2022/02/25 09:10:28;;;;;;;14.32;4.13;;;;;;;;;;5006131;28;20050;-76
2022/02/25 09:12:54;;;;;;;12.80;3.80;;;;;;;;;;5008371;28;20129;-76
2022/02/25 09:15:22;;;;;;;13.82;4.53;;;;;;;;;;5012775;28;20029;-75
2022/02/25 09:17:51;;;;;;;16.48;4.00;;;;;;;;;;5013688;28;20050;-75
2022/02/25 09:20:18;;;;;;;12.38;4.28;;;;;;;;;;5007043;28;20034;-75
2022/02/25 09:22:44;;;;;;;13.45;3.50;;;;;;;;;;5012257;28;20037;-75
2022/02/25 09:25:11;;;;;;;16.80;4.32;;;;;;;;;;5010236;28;20083;-75
2022/02/25 09:27:37;;;;;;;11.38;2.92;;;;;;;;;;5012598;28;20388;-75
2022/02/25 09:30:04;;;;;;;10.77;3.22;;;;;;;;;;5012120;28;20022;-74
2022/02/25 09:32:31;;;;;;;13.55;4.20;;;;;;;;;;5011635;28;20033;-75
2022/02/25 09:34:57;;;;;;;9.75;4.63;;;;;;;;;;5007559;28;20025;-74
2022/02/25 09:37:23;;;;;;;14.88;3.38;;;;;;;;;;5013174;28;20558;-75
2022/02/25 09:39:49;;;;;;;12.77;3.75;;;;;;;;;;5012206;28;20481;-74
2022/02/25 09:42:15;;;;;;;7.50;3.40;;;;;;;;;;5010963;28;20033;-74
2022/02/25 09:44:41;;;;;;;25.85;4.40;;;;;;;;;;5011324;28;20053;-74
2022/02/25 09:47:08;;;;;;;18.25;3.45;;;;;;;;;;5005310;28;20022;-74
2022/02/25 09:49:34;;;;;;;14.75;4.40;;;;;;;;;;5006904;28;20018;-74
2022/02/25 09:52:01;;;;;;;14.75;4.72;;;;;;;;;;5013430;28;20424;-74
2022/02/25 09:54:27;;;;;;;13.52;3.38;;;;;;;;;;5015272;28;20033;-76
2022/02/25 09:56:53;;;;;;;8.88;5.13;;;;;;;;;;5016236;28;20026;-75
2022/02/25 09:59:19;;;;;;;10.85;3.58;;;;;;;;;;5016285;28;20040;-75
2022/02/25 10:01:48;;;;;;;13.18;4.65;;;;;;;;;;5013438;28;20034;-74
2022/02/25 10:04:22;;;;;;;11.80;4.68;;;;;;;;;;5010931;28;20026;-75
2022/02/25 10:06:49;;;;;;;14.18;4.35;;;;;;;;;;5012725;28;20033;-74
2022/02/25 10:09:27;;;;;;;15.70;4.18;;;;;;;;;;5008154;28;20034;-75
2022/02/25 10:12:09;;;;;;;17.40;5.20;;;;;;;;;;5006695;28;20188;-75
2022/02/25 10:14:47;;;;;;;10.40;3.67;;;;;;;;;;5007474;28;20041;-75
2022/02/25 10:17:19;;;;;;;15.93;4.88;;;;;;;;;;5004822;28;20113;-75
2022/02/25 10:19:48;;;;;;;12.23;4.10;;;;;;;;;;5012168;28;20049;-76
2022/02/25 10:22:18;;;;;;;13.77;3.75;;;;;;;;;;5005187;28;20029;-75
2022/02/25 10:25:07;;;;;;;13.27;3.83;;;;;;;;;;5010383;28;20034;-74
2022/02/25 10:27:38;;;;;;;15.20;3.47;;;;;;;;;;5011804;28;20034;-75
2022/02/25 10:30:13;;;;;;;11.57;3.75;;;;;;;;;;5011214;28;20040;-74
2022/02/25 10:32:39;;;;;;;;;;;;;;;;;;5009241;28;20125;-75
2022/02/25 10:35:22;;;;;;;18.27;3.83;;;;;;;;;;5012855;28;20346;-75
2022/02/25 10:38:08;;;;;;;18.48;4.32;;;;;;;;;;5010148;28;20030;-75
2022/02/25 10:40:36;;;;;;;6.72;3.13;;;;;;;;;;5012563;28;20018;-75
2022/02/25 10:43:02;;;;;;;22.05;3.95;;;;;;;;;;5012034;28;20053;-75
2022/02/25 10:45:28;;;;;;;7.05;3.30;;;;;;;;;;5013076;28;20092;-75
2022/02/25 10:48:01;;;;;;;13.32;4.18;;;;;;;;;;5010194;28;20034;-75
2022/02/25 10:50:28;;;;;;;13.27;3.80;;;;;;;;;;5012440;28;20104;-74
2022/02/25 10:52:55;;;;;;;13.88;4.05;;;;;;;;;;5004704;28;20550;-76
2022/02/25 10:55:25;;;;;;;12.48;4.47;;;;;;;;;;5009723;28;20022;-75
2022/02/25 10:57:52;;;;;;;15.98;4.65;;;;;;;;;;5007965;28;20028;-76
2022/02/25 11:00:19;;;;;;;12.57;4.10;;;;;;;;;;5008644;28;20056;-76
2022/02/25 11:02:48;;;;;;;9.55;3.55;;;;;;;;;;5007078;28;20083;-75
2022/02/25 11:05:16;;;;;;;8.50;3.40;;;;;;;;;;5009347;28;20029;-76
2022/02/25 11:07:44;;;;;;;11.50;3.88;;;;;;;;;;5014344;28;20038;-74
2022/02/25 11:10:11;;;;;;;10.27;3.33;;;;;;;;;;5010936;28;20113;-75
2022/02/25 11:12:40;;;;;;;10.13;3.25;;;;;;;;;;5007629;28;20109;-76
2022/02/25 11:15:08;;;;;;;11.75;4.53;;;;;;;;;;5010211;28;20022;-75
2022/02/25 11:17:35;;;;;;;10.38;4.63;;;;;;;;;;5026209;28;20420;-75
2022/02/25 11:20:04;;;;;;;8.40;3.30;;;;;;;;;;5008353;28;20088;-74
2022/02/25 11:22:32;;;;;;;9.68;3.75;;;;;;;;;;5005662;28;20168;-75
2022/02/25 11:24:59;;;;;;;9.43;3.35;;;;;;;;;;5003898;28;20030;-75
2022/02/25 11:27:25;;;;;;;9.10;3.58;;;;;;;;;;5011737;28;20025;-76
2022/02/25 11:29:56;;;;;;;10.27;3.58;;;;;;;;;;5010438;28;20037;-75
2022/02/25 11:32:25;;;;;;;10.40;3.53;;;;;;;;;;5010948;28;20106;-76
2022/02/25 11:34:51;;;;;;;11.10;3.55;;;;;;;;;;5013800;28;20108;-75
2022/02/25 11:37:37;;;;;;;14.27;3.97;;;;;;;;;;5011214;28;20034;-75
2022/02/25 11:40:04;;;;;;;11.43;3.75;;;;;;;;;;4998627;28;20048;-75
2022/02/25 11:42:30;;;;;;;9.05;3.67;;;;;;;;;;5004120;28;20025;-73
2022/02/25 11:45:15;;;;;;;9.50;4.18;;;;;;;;;;5009184;28;20143;-75
2022/02/25 11:47:41;;;;;;;11.77;3.07;;;;;;;;;;5008419;28;20025;-74
2022/02/25 11:50:26;;;;;;;11.07;4.70;;;;;;;;;;5009840;28;20260;-75
2022/02/25 11:52:59;;;;;;;8.37;3.13;;;;;;;;;;5010581;28;20022;-74
2022/02/25 11:55:26;;;;;;;10.82;3.63;;;;;;;;;;5009655;28;20397;-74
2022/02/25 11:57:53;;;;;;;11.65;4.57;;;;;;;;;;5011387;28;20037;-75
2022/02/25 12:00:21;;;;;;;10.98;3.40;;;;;;;;;;5010230;28;20045;-75
2022/02/25 12:03:06;;;;;;;11.88;3.30;;;;;;;;;;5009613;28;20034;-75
2022/02/25 12:05:41;;;;;;;9.07;3.78;;;;;;;;;;5008752;28;20511;-75
2022/02/25 12:08:23;;;;;;;11.40;3.50;;;;;;;;;;5009453;28;20061;-75
2022/02/25 12:10:49;;;;;;;8.40;3.05;;;;;;;;;;5010481;28;20057;-75
2022/02/25 12:13:25;;;;;;;13.57;3.05;;;;;;;;;;5010087;28;20033;-75
2022/02/25 12:15:53;;;;;;;12.73;4.65;;;;;;;;;;4996209;28;20053;-75
2022/02/25 12:18:19;;;;;;;7.28;3.03;;;;;;;;;;5009740;28;20565;-74
2022/02/25 12:20:50;;;;;;;7.25;3.30;;;;;;;;;;5009471;28;20041;-74
2022/02/25 12:23:23;;;;;;;11.18;4.35;;;;;;;;;;5009205;28;20121;-76
2022/02/25 12:25:52;;;;;;;12.48;3.72;;;;;;;;;;5011121;28;20860;-74
2022/02/25 12:28:22;;;;;;;9.05;3.63;;;;;;;;;;5011753;28;20026;-76
2022/02/25 12:31:00;;;;;;;13.25;4.40;;;;;;;;;;5010209;28;20034;-77
2022/02/25 12:33:44;;;;;;;8.27;3.60;;;;;;;;;;5009240;28;20447;-75
2022/02/25 12:36:29;;;;;;;13.57;4.40;;;;;;;;;;5005810;28;20025;-76
2022/02/25 12:38:59;;;;;;;11.70;3.30;;;;;;;;;;5007012;28;20034;-75
2022/02/25 12:41:27;;;;;;;13.48;4.18;;;;;;;;;;5008576;28;20275;-76
2022/02/25 12:43:58;;;;;;;12.13;4.55;;;;;;;;;;5009408;28;20026;-76
2022/02/25 12:46:25;;;;;;;20.92;5.20;;;;;;;;;;5009125;28;20365;-77
2022/02/25 12:48:51;;;;;;;8.63;3.58;;;;;;;;;;5005702;28;20033;-75
2022/02/25 12:51:18;;;;;;;7.60;3.67;;;;;;;;;;5007870;28;20475;-77
2022/02/25 12:53:58;;;;;;;8.07;3.33;;;;;;;;;;5007640;28;20037;-75
2022/02/25 12:56:26;;;;;;;10.60;3.50;;;;;;;;;;5004671;28;20022;-74
2022/02/25 12:58:54;;;;;;;13.52;3.33;;;;;;;;;;5009526;28;20469;-78
2022/02/25 13:01:24;;;;;;;12.65;3.83;;;;;;;;;;5010651;28;20133;-77
2022/02/25 13:04:06;;;;;;;6.95;3.70;;;;;;;;;;5008853;28;20044;-77
2022/02/25 13:06:37;;;;;;;12.55;5.30;;;;;;;;;;5001625;28;20030;-76
2022/02/25 13:09:07;;;;;;;22.27;10.75;;;;;;;;;;4999628;28;20025;-75
2022/02/25 13:11:34;;;;;;;16.23;7.05;;;;;;;;;;4999719;28;20050;-75
2022/02/25 13:14:14;;;;;;;14.15;6.32;;;;;;;;;;5000529;28;20044;-75
2022/02/25 13:16:41;;;;;;;10.30;4.70;;;;;;;;;;4998072;28;20034;-75
2022/02/25 13:19:20;;;;;;;8.30;3.92;;;;;;;;;;5002053;28;20420;-75
2022/02/25 13:21:47;;;;;;;12.90;4.05;;;;;;;;;;5001247;28;20584;-75
2022/02/25 13:24:15;;;;;;;7.35;2.83;;;;;;;;;;5004579;28;20152;-76
2022/02/25 13:26:42;;;;;;;12.32;2.92;;;;;;;;;;5009972;28;20064;-77
2022/02/25 13:29:08;;;;;;;9.30;3.33;;;;;;;;;;5010039;28;20574;-76
2022/02/25 13:31:34;;;;;;;8.73;4.75;;;;;;;;;;5009587;28;20053;-73
2022/02/25 13:34:00;;;;;;;11.07;5.05;;;;;;;;;;5016805;28;20030;-75
2022/02/25 13:36:26;;;;;;;10.40;4.53;;;;;;;;;;5002517;28;20028;-75
2022/02/25 13:38:57;;;;;;;11.68;3.85;;;;;;;;;;5015001;28;20030;-75
2022/02/25 13:41:23;;;;;;;8.80;3.80;;;;;;;;;;5003736;28;20022;-78
2022/02/25 13:43:50;;;;;;;15.93;10.35;;;;;;;;;;5002743;28;20586;-76
2022/02/25 13:46:26;;;;;;;24.45;14.05;;;;;;;;;;5008413;28;20030;-78
2022/02/25 13:54:25;;;;;;;8.07;2.83;;;;;;;;;;5009707;28;20074;-74
2022/02/25 13:56:52;;;;;;;5.82;3.47;;;;;;;;;;5011393;28;20029;-75
2022/02/25 13:59:20;;;;;;;6.53;3.40;;;;;;;;;;5009168;28;20411;-77
2022/02/25 14:01:46;;;;;;;6.03;3.40;;;;;;;;;;5010426;28;20026;-76
2022/02/25 14:04:17;;;;;;;9.88;4.55;;;;;;;;;;5011786;28;20037;-77
2022/02/25 14:06:57;;;;;;;5.47;2.95;;;;;;;;;;5006726;28;20496;-76
2022/02/25 14:09:33;;;;;;;6.47;3.00;;;;;;;;;;5005409;28;20415;-79
2022/02/25 14:12:01;;;;;;;6.95;2.45;;;;;;;;;;5013131;28;20041;-79
2022/02/25 14:14:35;;;;;;;7.07;2.88;;;;;;;;;;5010763;28;20048;-77
2022/02/25 14:17:01;;;;;;;7.15;2.78;;;;;;;;;;5009041;28;20393;-77
2022/02/25 14:19:27;;;;;;;5.25;2.70;;;;;;;;;;5013242;28;20048;-75
2022/02/25 14:21:54;;;;;;;6.85;3.25;;;;;;;;;;5012644;28;20029;-77
2022/02/25 14:24:21;;;;;;;7.82;3.30;;;;;;;;;;5013527;28;20688;-75
2022/02/25 14:26:47;;;;;;;8.32;2.90;;;;;;;;;;5010249;28;20038;-75
2022/02/25 14:29:17;;;;;;;6.10;2.42;;;;;;;;;;5011262;28;20034;-76
2022/02/25 14:31:44;;;;;;;8.60;3.03;;;;;;;;;;5012290;28;20034;-75
2022/02/25 14:34:10;;;;;;;6.13;2.47;;;;;;;;;;5011893;28;20033;-75
2022/02/25 14:36:36;;;;;;;5.97;3.22;;;;;;;;;;5011742;28;20066;-75
2022/02/25 14:39:05;;;;;;;4.68;2.63;;;;;;;;;;5010711;28;20475;-77
2022/02/25 14:41:31;;;;;;;6.68;2.67;;;;;;;;;;5008722;28;20053;-75
2022/02/25 14:43:57;;;;;;;10.95;3.50;;;;;;;;;;5008470;28;20026;-76
2022/02/25 14:46:24;;;;;;;10.70;3.63;;;;;;;;;;5011520;28;20133;-76
2022/02/25 14:48:50;;;;;;;6.57;3.35;;;;;;;;;;5012006;28;20029;-75
2022/02/25 14:51:16;;;;;;;11.82;3.50;;;;;;;;;;5012606;28;20030;-75